• Join FlightAware (Why Join?)
  • Login
  • US Flag 
07:18PM EST


 

Airport Tracker/Info


-or-


 

Live Flight TrackerFlight Track Log ✈ N153PB ✈ 15-Jun-2013 ✈ KLNS - KPDK

Flight Track Log - Related Links

Times and Time Zones

All times are in EDT time to prevent confusion due to time zone crossing. See the N153PB flight status page for this flight to view local times or setup timezone preferences in your user account.

Time Position Orientation Groundspeed Altitude Reporting Facility
EDT Latitude Longitude Course Direction KTS MPH feet Rate Location/Type
09:15PM 40.0533 -76.3331 218° Southwest 189 217 2,900  Level New York Center
09:16PM 40.0097 -76.3703 213° Southwest 181 208 4,300 1,380 Climbing New York Center
09:17PM 39.9769 -76.4028 217° Southwest 181 208 5,700 1,320 Climbing New York Center
09:18PM 39.9356 -76.4375 213° Southwest 181 208 7,100 1,500 Climbing New York Center
09:19PM 39.8500 -76.5035 270° West  Level FlightAware Approximate
09:19PM 39.8939 -76.4800 218° Southwest 181 208 8,700  Level New York Center
09:20PM 39.8022 -76.5478 218° Southwest  Level FlightAware Approximate
09:20PM 39.8547 -76.5147 214° Southwest 186 214 10,000  Level New York Center
09:21PM 39.8156 -76.5519 216° Southwest 186 214 11,600 1,440 Climbing New York Center
09:22PM 39.7739 -76.5892 214° Southwest 186 214 12,900 1,380 Climbing New York Center
09:23PM 39.7386 -76.6322 223° Southwest 186 214 14,500 1,320 Climbing New York Center
09:24PM 39.7047 -76.6806 228° Southwest 186 214 15,600 1,260 Climbing New York Center
09:25PM 39.6689 -76.7317 228° Southwest 191 220 17,000 1,200 Climbing New York Center
09:26PM 39.6331 -76.7825 228° Southwest 191 220 18,100 1,140 Climbing New York Center
09:27PM 39.5928 -76.8356 225° Southwest 196 226 19,500 1,080 Climbing Washington Center
09:28PM 39.5589 -76.8836 228° Southwest 186 214 20,500 900 Climbing Washington Center
09:29PM 39.5228 -76.9367 229° Southwest 186 214 21,400 900 Climbing Washington Center
09:30PM 39.4867 -76.9872 227° Southwest 186 214 22,400 720 Climbing Washington Center
09:31PM 39.4447 -77.0292 218° Southwest 192 221 22,900 240 Climbing Washington Center
09:32PM 39.3961 -77.0819 220° Southwest 214 246 22,900 240 Level Washington Center
09:33PM 39.3453 -77.1347 219° Southwest 227 261 23,500 780 Climbing Washington Center
09:34PM 39.3011 -77.1819 220° Southwest 227 261 24,500 780 Climbing Washington Center
09:35PM 39.2567 -77.2267 218° Southwest 216 249 25,100 660 Climbing Washington Center
09:36PM 39.2144 -77.2711 219° Southwest 210 242 25,900 420 Climbing Washington Center
09:37PM 39.1700 -77.3183 219° Southwest 205 236 26,000  Climbing Washington Center
09:38PM 39.1233 -77.3681 220° Southwest 217 250 25,900 -60 Descending Washington Center
09:39PM 39.0703 -77.4231 219° Southwest 229 264 25,900  Level Washington Center
09:40PM 39.0194 -77.4778 220° Southwest 234 269 25,900  Level Washington Center
09:41PM 38.9667 -77.5300 218° Southwest 239 275 25,900  Level Washington Center
09:42PM 38.9092 -77.5925 220° Southwest 239 275 25,900  Level Washington Center
09:43PM 38.8625 -77.6392 218° Southwest 239 275 25,900  Level Washington Center
09:44PM 38.8094 -77.7069 225° Southwest 239 275 26,000  Climbing Washington Center
09:45PM 38.7725 -77.7778 236° Southwest 245 282 25,900 -60 Descending Washington Center
09:46PM 38.7297 -77.8456 231° Southwest 250 288 25,900  Level Washington Center
09:47PM 38.6908 -77.9111 233° Southwest 250 288 25,900  Level Washington Center
09:48PM 38.6500 -77.9761 231° Southwest 250 288 25,900  Level Washington Center
09:49PM 38.6092 -78.0386 230° Southwest 250 288 25,900  Level Washington Center
09:50PM 38.5681 -78.1064 232° Southwest 250 288 25,900  Level Washington Center
09:51PM 38.5272 -78.1686 230° Southwest 245 282 25,900  Level Washington Center
09:52PM 38.4861 -78.2361 232° Southwest 245 282 25,900  Level Washington Center
09:53PM 38.4450 -78.3008 231° Southwest 245 282 25,900  Level Washington Center
09:54PM 38.4019 -78.3656 230° Southwest 245 282 25,900  Level Washington Center
09:55PM 38.3606 -78.4331 232° Southwest 245 282 25,900  Level Washington Center
09:56PM 38.3194 -78.4975 231° Southwest 245 282 25,900  Level Washington Center
09:57PM 38.2761 -78.5619 229° Southwest 245 282 25,900  Level Washington Center
09:58PM 38.2369 -78.6319 235° Southwest 245 282 25,900  Level Washington Center
09:59PM 38.1936 -78.6961 229° Southwest 245 282 25,900  Level Washington Center
10:00PM 38.1567 -78.7553 232° Southwest 240 276 25,900  Level Washington Center
10:01PM 38.1153 -78.8169 230° Southwest 240 276 25,900  Level Washington Center
10:02PM 38.0717 -78.8861 231° Southwest 240 276 25,900  Level Washington Center
10:03PM 38.0261 -78.9553 230° Southwest 240 276 25,900  Level Washington Center
10:04PM 37.9847 -79.0167 229° Southwest 240 276 26,000  Climbing Washington Center
10:05PM 37.9411 -79.0833 230° Southwest 240 276 25,900  Descending Washington Center
10:06PM 37.9017 -79.1447 231° Southwest 240 276 26,000  Climbing Washington Center
10:07PM 37.8644 -79.2008 230° Southwest 240 276 26,000 -60 Level Washington Center
10:08PM 37.8208 -79.2669 230° Southwest 240 276 25,900  Descending Washington Center
10:09PM 37.7792 -79.3281 229° Southwest 240 276 26,000  Climbing Washington Center
10:10PM 37.7353 -79.3994 232° Southwest 240 276 26,000 -60 Level Washington Center
10:11PM 37.6894 -79.4628 228° Southwest 246 283 25,900  Descending Washington Center
10:12PM 37.6503 -79.5183 228° Southwest 251 289 26,000  Climbing Washington Center
10:13PM 37.6039 -79.5894 231° Southwest 251 289 26,000  Level Washington Center
10:14PM 37.5644 -79.6503 231° Southwest 251 289 26,000  Level Washington Center
10:15PM 37.5161 -79.7208 229° Southwest 251 289 26,000  Level Washington Center
10:16PM 37.4742 -79.7842 230° Southwest 251 289 26,000  Level Washington Center
10:17PM 37.4303 -79.8522 231° Southwest 251 289 26,000  Level Washington Center
10:19PM 37.3542 -79.9636 229° Southwest 247 284 26,000  Level Atlanta Center
10:20PM 37.3144 -80.0178 227° Southwest 242 278 26,000  Level Atlanta Center
10:21PM 37.2708 -80.0853 231° Southwest 247 284 26,000  Level Atlanta Center
10:22PM 37.2269 -80.1475 228° Southwest 247 284 26,000  Level Atlanta Center
10:23PM 37.1789 -80.2175 229° Southwest 242 278 26,000  Level Atlanta Center
10:24PM 37.1372 -80.2819 231° Southwest 242 278 26,000  Level Atlanta Center
10:25PM 37.0914 -80.3467 228° Southwest 242 278 26,000  Level Atlanta Center
10:26PM 37.0472 -80.4111 229° Southwest 242 278 26,000  Level Atlanta Center
10:27PM 37.0072 -80.4700 230° Southwest 242 278 26,000  Level Atlanta Center
10:28PM 36.9653 -80.5317 230° Southwest 242 278 26,000  Level Atlanta Center
10:29PM 36.9192 -80.5961 228° Southwest 242 278 26,000  Level Atlanta Center
10:30PM 36.8711 -80.6683 230° Southwest 242 278 26,000  Level Atlanta Center
10:31PM 36.8269 -80.7322 229° Southwest 242 278 26,000  Level Atlanta Center
10:32PM 36.7850 -80.7936 230° Southwest 242 278 26,000  Level Atlanta Center
10:33PM 36.7406 -80.8550 228° Southwest 236 272 26,000  Level Atlanta Center
10:34PM 36.6964 -80.9217 230° Southwest 241 277 26,000  Level Atlanta Center
10:35PM 36.6503 -80.9881 229° Southwest 251 289 26,000  Level Atlanta Center
10:36PM 36.6081 -81.0544 232° Southwest 251 289 26,000  Level Atlanta Center
10:37PM 36.5617 -81.1181 228° Southwest 244 281 26,000  Level Atlanta Center
10:38PM 36.5192 -81.1817 230° Southwest 244 281 26,000  Level Atlanta Center
10:39PM 36.4728 -81.2453 228° Southwest 239 275 26,000  Level Atlanta Center
10:40PM 36.4283 -81.3139 231° Southwest 239 275 26,000  Level Atlanta Center
10:41PM 36.3839 -81.3747 228° Southwest 239 275 26,000  Level Atlanta Center
10:42PM 36.3394 -81.4406 230° Southwest 244 281 26,000  Level Atlanta Center
10:43PM 36.2989 -81.4961 228° Southwest 244 281 26,000  Level Atlanta Center
10:44PM 36.2522 -81.5644 230° Southwest 242 278 26,000  Level Atlanta Center
10:45PM 36.2097 -81.6225 228° Southwest 242 278 26,000  Level Atlanta Center
10:46PM 36.1650 -81.6856 229° Southwest 242 278 26,000  Level Atlanta Center
10:47PM 36.1203 -81.7483 229° Southwest 242 278 26,000  Level Atlanta Center
10:48PM 36.0756 -81.8139 230° Southwest 242 278 26,000  Level Atlanta Center
10:49PM 36.0308 -81.8769 229° Southwest 242 278 26,000  Level Atlanta Center
10:50PM 35.9839 -81.9397 227° Southwest 242 278 26,000  Level Atlanta Center
10:51PM 35.9372 -82.0100 231° Southwest 242 278 26,000  Level Atlanta Center
10:52PM 35.8925 -82.0753 230° Southwest 242 278 26,000  Level Atlanta Center
10:53PM 35.8433 -82.1381 226° Southwest 247 284 26,000  Level Atlanta Center
10:54PM 35.7983 -82.2006 228° Southwest 247 284 26,000  Level Atlanta Center
10:55PM 35.7514 -82.2628 227° Southwest 252 290 26,000  Level Atlanta Center
10:56PM 35.7044 -82.3331 231° Southwest 252 290 26,000  Level Atlanta Center
10:57PM 35.6614 -82.3928 228° Southwest 252 290 26,000  Level Atlanta Center
10:58PM 35.6119 -82.4550 226° Southwest 252 290 26,000 -480 Level Atlanta Center
10:59PM 35.5692 -82.5222 232° Southwest 252 290 25,100 -1,020 Descending Atlanta Center
11:00PM 35.5219 -82.5792 224° Southwest 258 297 24,000 -600 Descending Atlanta Center
11:01PM 35.4725 -82.6439 227° Southwest 258 297 23,900 -60 Descending Atlanta Center
11:02PM 35.4294 -82.7058 230° Southwest 258 297 23,900 -480 Level Atlanta Center
11:03PM 35.3819 -82.7675 227° Southwest 260 299 23,000 -540 Descending Atlanta Center
11:04PM 35.3286 -82.8422 229° Southwest 271 312 22,900 -60 Descending Atlanta Center
11:05PM 35.2792 -82.9014 224° Southwest 264 304 22,900  Level Atlanta Center
11:06PM 35.2317 -82.9606 226° Southwest 251 289 22,900  Level Atlanta Center
11:07PM 35.1819 -83.0197 224° Southwest 251 289 22,900  Level Atlanta Center
11:08PM 35.1344 -83.0789 226° Southwest 251 289 22,900  Level Atlanta Center
11:09PM 35.0869 -83.1378 225° Southwest 251 289 22,900  Level Atlanta Center
11:10PM 35.0394 -83.1992 227° Southwest 251 289 22,900  Level Atlanta Center
11:11PM 34.9856 -83.2556 221° Southwest 251 289 22,900  Level Atlanta Center
11:12PM 34.9294 -83.3092 218° Southwest 251 289 22,900  Level Atlanta Center
11:13PM 34.8733 -83.3603 217° Southwest 256 295 22,900 -180 Level Atlanta Center
11:14PM 34.8133 -83.4189 219° Southwest 264 304 22,600 -900 Descending Atlanta Center
11:15PM 34.7508 -83.4800 219° Southwest 272 313 21,200 -1,500 Descending Atlanta Center
11:16PM 34.6928 -83.5361 218° Southwest 272 313 19,700 -1,500 Descending Atlanta Center
11:17PM 34.6386 -83.5844 216° Southwest 264 304 18,200 -1,380 Descending Atlanta Center
11:18PM 34.5825 -83.6350 217° Southwest 264 304 17,000 -1,440 Descending Atlanta Center
11:19PM 34.5264 -83.6883 218° Southwest 258 297 15,400 -1,560 Descending Atlanta Center
11:20PM 34.4722 -83.7439 220° Southwest 258 297 13,900 -1,380 Descending Atlanta Center
11:21PM 34.4222 -83.7869 215° Southwest 253 291 12,700 -1,380 Descending Atlanta Center
11:22PM 34.3700 -83.8375 219° Southwest 253 291 11,200 -1,500 Descending Atlanta Center
11:23PM 34.3181 -83.8878 219° Southwest 253 291 9,700 -1,500 Descending Atlanta Center
11:24PM 34.2639 -83.9383 218° Southwest 247 284 8,300 -900 Descending Atlanta Center
11:25PM 34.2139 -83.9861 218° Southwest 247 284 8,000 -540 Descending Atlanta Center
11:26PM 34.1617 -84.0364 219° Southwest 240 276 7,300 -1,140 Descending Atlanta Center
11:27PM 34.1167 -84.0833 221° Southwest 249 287 5,900 -1,620 Descending Atlanta TRACON
11:27PM 34.0833 -84.1333 231° Southwest 226 260 4,500 -1,440 Descending Atlanta TRACON
11:29PM 34.0667 -84.2000 253° West 182 209 3,100 -720 Descending Atlanta TRACON
11:30PM 34.0333 -84.2333 220° Southwest 159 183 3,000  Descending Atlanta TRACON
11:31PM 33.9833 -84.2500 195° South 133 153 3,100 -240 Climbing Atlanta TRACON
11:32PM 33.9500 -84.2667 203° Southwest 125 144 2,600 -600 Descending Atlanta TRACON
11:33PM 33.9333 -84.2833 220° Southwest 124 143 2,000 -600 Descending Atlanta TRACON
11:35PM 33.8756 -84.3020 209° Southwest  Level Estimated
11:42PM 33.8756 -84.3020 209° Southwest  Level Estimated